sensor_id;sensor_type;location;lat;lon;timestamp;pressure;altitude;pressure_sealevel;temperature;humidity
10946;BME280;5525;42.648;23.368;2023-01-29T00:00:45;94754.94;;;-0.27;100.00
10946;BME280;5525;42.648;23.368;2023-01-29T00:03:15;94790.66;;;-0.03;100.00
10946;BME280;5525;42.648;23.368;2023-01-29T00:05:44;94796.56;;;0.05;100.00
10946;BME280;5525;42.648;23.368;2023-01-29T00:08:16;94766.94;;;-0.19;100.00
10946;BME280;5525;42.648;23.368;2023-01-29T00:10:46;94801.56;;;0.01;100.00
10946;BME280;5525;42.648;23.368;2023-01-29T00:13:15;94791.41;;;-0.07;100.00
10946;BME280;5525;42.648;23.368;2023-01-29T00:15:53;94811.97;;;0.08;100.00
10946;BME280;5525;42.648;23.368;2023-01-29T00:18:23;94804.28;;;0.11;100.00
10946;BME280;5525;42.648;23.368;2023-01-29T00:20:54;94811.78;;;0.19;100.00
10946;BME280;5525;42.648;23.368;2023-01-29T00:23:25;94809.84;;;0.10;100.00
10946;BME280;5525;42.648;23.368;2023-01-29T00:25:58;94825.56;;;0.16;100.00
10946;BME280;5525;42.648;23.368;2023-01-29T00:28:29;94817.38;;;0.23;100.00
10946;BME280;5525;42.648;23.368;2023-01-29T00:31:06;94818.34;;;0.12;100.00
10946;BME280;5525;42.648;23.368;2023-01-29T00:33:33;94813.31;;;0.10;100.00
10946;BME280;5525;42.648;23.368;2023-01-29T00:36:04;94819.44;;;0.11;100.00
10946;BME280;5525;42.648;23.368;2023-01-29T00:38:33;94813.56;;;0.09;100.00
10946;BME280;5525;42.648;23.368;2023-01-29T00:41:06;94819.44;;;0.11;100.00
10946;BME280;5525;42.648;23.368;2023-01-29T00:43:54;94817.06;;;0.19;100.00
10946;BME280;5525;42.648;23.368;2023-01-29T00:46:39;94798.91;;;0.01;100.00
10946;BME280;5525;42.648;23.368;2023-01-29T00:49:07;94818.88;;;0.09;100.00
10946;BME280;5525;42.648;23.368;2023-01-29T00:51:35;94824.47;;;0.12;100.00
10946;BME280;5525;42.648;23.368;2023-01-29T00:54:03;94818.88;;;0.09;100.00
10946;BME280;5525;42.648;23.368;2023-01-29T00:56:33;94787.94;;;-0.13;100.00
10946;BME280;5525;42.648;23.368;2023-01-29T00:59:01;94817.78;;;0.05;100.00
10946;BME280;5525;42.648;23.368;2023-01-29T01:01:28;94809.22;;;-0.03;100.00
10946;BME280;5525;42.648;23.368;2023-01-29T01:04:12;94812.66;;;-0.07;100.00
10946;BME280;5525;42.648;23.368;2023-01-29T01:06:42;94807.03;;;-0.11;100.00
10946;BME280;5525;42.648;23.368;2023-01-29T01:09:10;94829.19;;;0.00;100.00
10946;BME280;5525;42.648;23.368;2023-01-29T01:11:56;94826.25;;;0.02;100.00
10946;BME280;5525;42.648;23.368;2023-01-29T01:14:25;94797.91;;;-0.25;100.00
10946;BME280;5525;42.648;23.368;2023-01-29T01:16:54;94780.16;;;-0.24;100.00
10946;BME280;5525;42.648;23.368;2023-01-29T01:19:21;94821.94;;;-0.05;100.00
10946;BME280;5525;42.648;23.368;2023-01-29T01:21:50;94780.88;;;-0.34;100.00
10946;BME280;5525;42.648;23.368;2023-01-29T01:24:18;94773.22;;;-0.30;100.00
10946;BME280;5525;42.648;23.368;2023-01-29T01:26:46;94787.28;;;-0.25;100.00
10946;BME280;5525;42.648;23.368;2023-01-29T01:29:17;94807.34;;;-0.07;100.00
10946;BME280;5525;42.648;23.368;2023-01-29T01:31:43;94814.25;;;-0.06;100.00
10946;BME280;5525;42.648;23.368;2023-01-29T01:34:11;94804.69;;;-0.07;100.00
10946;BME280;5525;42.648;23.368;2023-01-29T01:36:39;94806.53;;;-0.13;100.00
10946;BME280;5525;42.648;23.368;2023-01-29T01:39:08;94795.50;;;-0.26;100.00
10946;BME280;5525;42.648;23.368;2023-01-29T01:41:35;94809.19;;;-0.08;100.00
10946;BME280;5525;42.648;23.368;2023-01-29T01:44:04;94808.31;;;-0.18;100.00
10946;BME280;5525;42.648;23.368;2023-01-29T01:46:35;94806.94;;;-0.26;100.00
10946;BME280;5525;42.648;23.368;2023-01-29T01:49:07;94787.16;;;-0.45;100.00
10946;BME280;5525;42.648;23.368;2023-01-29T01:51:39;94819.47;;;-0.16;100.00
10946;BME280;5525;42.648;23.368;2023-01-29T01:54:11;94814.00;;;-0.36;100.00
10946;BME280;5525;42.648;23.368;2023-01-29T01:56:46;94805.34;;;-0.27;100.00
10946;BME280;5525;42.648;23.368;2023-01-29T01:59:22;94831.41;;;-0.19;100.00
10946;BME280;5525;42.648;23.368;2023-01-29T02:01:52;94819.88;;;-0.34;100.00
10946;BME280;5525;42.648;23.368;2023-01-29T02:04:22;94832.97;;;-0.23;100.00
10946;BME280;5525;42.648;23.368;2023-01-29T02:07:08;94835.34;;;-0.21;100.00
10946;BME280;5525;42.648;23.368;2023-01-29T02:10:04;94818.50;;;-0.37;100.00
10946;BME280;5525;42.648;23.368;2023-01-29T02:12:39;94831.31;;;-0.29;100.00
10946;BME280;5525;42.648;23.368;2023-01-29T02:15:11;94832.13;;;-0.28;100.00
10946;BME280;5525;42.648;23.368;2023-01-29T02:17:42;94838.72;;;-0.31;100.00
10946;BME280;5525;42.648;23.368;2023-01-29T02:20:17;94827.22;;;-0.41;100.00
10946;BME280;5525;42.648;23.368;2023-01-29T02:23:06;94840.78;;;-0.38;100.00
10946;BME280;5525;42.648;23.368;2023-01-29T02:25:58;94831.25;;;-0.34;100.00
10946;BME280;5525;42.648;23.368;2023-01-29T02:28:38;94829.16;;;-0.32;100.00
10946;BME280;5525;42.648;23.368;2023-01-29T02:31:12;94842.94;;;-0.35;100.00
10946;BME280;5525;42.648;23.368;2023-01-29T02:33:50;94802.16;;;-0.55;100.00
10946;BME280;5525;42.648;23.368;2023-01-29T02:36:29;94847.91;;;-0.43;100.00
10946;BME280;5525;42.648;23.368;2023-01-29T02:39:03;94840.22;;;-0.40;100.00
10946;BME280;5525;42.648;23.368;2023-01-29T02:41:40;94857.78;;;-0.34;100.00
10946;BME280;5525;42.648;23.368;2023-01-29T02:44:17;94859.66;;;-0.34;100.00
10946;BME280;5525;42.648;23.368;2023-01-29T02:46:54;94861.19;;;-0.38;100.00
10946;BME280;5525;42.648;23.368;2023-01-29T02:49:28;94837.25;;;-0.48;100.00
10946;BME280;5525;42.648;23.368;2023-01-29T02:52:00;94843.81;;;-0.56;100.00
10946;BME280;5525;42.648;23.368;2023-01-29T02:54:32;94866.25;;;-0.37;100.00
10946;BME280;5525;42.648;23.368;2023-01-29T02:57:07;94858.53;;;-0.38;100.00
10946;BME280;5525;42.648;23.368;2023-01-29T02:59:47;94863.09;;;-0.34;100.00
10946;BME280;5525;42.648;23.368;2023-01-29T03:02:18;94806.75;;;-0.77;100.00
10946;BME280;5525;42.648;23.368;2023-01-29T03:04:51;94836.03;;;-0.62;100.00
10946;BME280;5525;42.648;23.368;2023-01-29T03:07:25;94855.88;;;-0.43;100.00
10946;BME280;5525;42.648;23.368;2023-01-29T03:10:12;94821.19;;;-0.63;100.00
10946;BME280;5525;42.648;23.368;2023-01-29T03:12:43;94865.09;;;-0.46;100.00
10946;BME280;5525;42.648;23.368;2023-01-29T03:15:17;94836.28;;;-0.64;100.00
10946;BME280;5525;42.648;23.368;2023-01-29T03:17:52;94847.84;;;-0.48;100.00
10946;BME280;5525;42.648;23.368;2023-01-29T03:20:23;94841.50;;;-0.47;100.00
10946;BME280;5525;42.648;23.368;2023-01-29T03:22:57;94864.97;;;-0.34;100.00
10946;BME280;5525;42.648;23.368;2023-01-29T03:25:27;94838.28;;;-0.49;100.00
10946;BME280;5525;42.648;23.368;2023-01-29T03:28:15;94869.41;;;-0.40;100.00
10946;BME280;5525;42.648;23.368;2023-01-29T03:31:05;94845.72;;;-0.51;100.00
10946;BME280;5525;42.648;23.368;2023-01-29T03:33:53;94873.97;;;-0.35;100.00
10946;BME280;5525;42.648;23.368;2023-01-29T03:36:30;94868.91;;;-0.37;100.00
10946;BME280;5525;42.648;23.368;2023-01-29T03:39:03;94865.25;;;-0.31;100.00
10946;BME280;5525;42.648;23.368;2023-01-29T03:41:34;94869.59;;;-0.20;100.00
10946;BME280;5525;42.648;23.368;2023-01-29T03:44:11;94879.63;;;-0.27;100.00
10946;BME280;5525;42.648;23.368;2023-01-29T03:46:51;94857.00;;;-0.34;100.00
10946;BME280;5525;42.648;23.368;2023-01-29T03:49:31;94872.94;;;-0.29;100.00
10946;BME280;5525;42.648;23.368;2023-01-29T03:52:15;94842.34;;;-0.42;100.00
10946;BME280;5525;42.648;23.368;2023-01-29T03:54:53;94863.97;;;-0.28;100.00
10946;BME280;5525;42.648;23.368;2023-01-29T03:57:30;94862.59;;;-0.31;100.00
10946;BME280;5525;42.648;23.368;2023-01-29T04:00:05;94871.06;;;-0.34;100.00
10946;BME280;5525;42.648;23.368;2023-01-29T04:02:41;94854.06;;;-0.38;100.00
10946;BME280;5525;42.648;23.368;2023-01-29T04:05:20;94873.19;;;-0.36;100.00
10946;BME280;5525;42.648;23.368;2023-01-29T04:07:53;94876.59;;;-0.35;100.00
10946;BME280;5525;42.648;23.368;2023-01-29T04:10:26;94853.03;;;-0.58;100.00
10946;BME280;5525;42.648;23.368;2023-01-29T04:12:56;94877.16;;;-0.33;100.00
10946;BME280;5525;42.648;23.368;2023-01-29T04:15:27;94870.81;;;-0.32;100.00
10946;BME280;5525;42.648;23.368;2023-01-29T04:17:57;94870.03;;;-0.28;100.00
10946;BME280;5525;42.648;23.368;2023-01-29T04:20:24;94876.16;;;-0.27;100.00
10946;BME280;5525;42.648;23.368;2023-01-29T04:22:51;94857.16;;;-0.46;100.00
10946;BME280;5525;42.648;23.368;2023-01-29T04:25:21;94883.91;;;-0.47;100.00
10946;BME280;5525;42.648;23.368;2023-01-29T04:27:56;94867.75;;;-0.46;100.00
10946;BME280;5525;42.648;23.368;2023-01-29T04:30:34;94888.28;;;-0.36;100.00
10946;BME280;5525;42.648;23.368;2023-01-29T04:33:15;94880.78;;;-0.44;100.00
10946;BME280;5525;42.648;23.368;2023-01-29T04:36:00;94883.22;;;-0.38;100.00
10946;BME280;5525;42.648;23.368;2023-01-29T04:38:36;94885.53;;;-0.46;100.00
10946;BME280;5525;42.648;23.368;2023-01-29T04:41:15;94867.06;;;-0.63;100.00
10946;BME280;5525;42.648;23.368;2023-01-29T04:43:51;94888.47;;;-0.43;100.00
10946;BME280;5525;42.648;23.368;2023-01-29T04:46:26;94863.81;;;-0.70;100.00
10946;BME280;5525;42.648;23.368;2023-01-29T04:49:07;94880.44;;;-0.53;100.00
10946;BME280;5525;42.648;23.368;2023-01-29T04:51:44;94861.66;;;-0.73;100.00
10946;BME280;5525;42.648;23.368;2023-01-29T04:54:19;94892.88;;;-0.53;100.00
10946;BME280;5525;42.648;23.368;2023-01-29T04:56:53;94852.84;;;-0.78;100.00
10946;BME280;5525;42.648;23.368;2023-01-29T04:59:26;94876.75;;;-0.73;100.00
10946;BME280;5525;42.648;23.368;2023-01-29T05:01:57;94881.97;;;-0.57;100.00
10946;BME280;5525;42.648;23.368;2023-01-29T05:04:28;94885.09;;;-0.65;100.00
10946;BME280;5525;42.648;23.368;2023-01-29T05:07:01;94875.50;;;-0.66;100.00
10946;BME280;5525;42.648;23.368;2023-01-29T05:09:31;94892.88;;;-0.53;100.00
10946;BME280;5525;42.648;23.368;2023-01-29T05:12:03;94867.03;;;-0.68;100.00
10946;BME280;5525;42.648;23.368;2023-01-29T05:14:37;94837.94;;;-0.84;100.00
10946;BME280;5525;42.648;23.368;2023-01-29T05:17:11;94898.00;;;-0.47;100.00
10946;BME280;5525;42.648;23.368;2023-01-29T05:19:43;94884.72;;;-0.47;100.00
10946;BME280;5525;42.648;23.368;2023-01-29T05:22:14;94897.69;;;-0.50;100.00
10946;BME280;5525;42.648;23.368;2023-01-29T05:24:42;94906.94;;;-0.53;100.00
10946;BME280;5525;42.648;23.368;2023-01-29T05:27:16;94903.31;;;-0.47;100.00
10946;BME280;5525;42.648;23.368;2023-01-29T05:30:01;94906.19;;;-0.48;100.00
10946;BME280;5525;42.648;23.368;2023-01-29T05:32:28;94911.81;;;-0.45;100.00
10946;BME280;5525;42.648;23.368;2023-01-29T05:34:56;94893.44;;;-0.51;100.00
10946;BME280;5525;42.648;23.368;2023-01-29T05:37:24;94918.22;;;-0.41;100.00
10946;BME280;5525;42.648;23.368;2023-01-29T05:39:53;94914.25;;;-0.38;100.00
10946;BME280;5525;42.648;23.368;2023-01-29T05:42:20;94895.22;;;-0.57;100.00
10946;BME280;5525;42.648;23.368;2023-01-29T05:44:46;94921.13;;;-0.42;100.00
10946;BME280;5525;42.648;23.368;2023-01-29T05:47:13;94919.03;;;-0.40;100.00
10946;BME280;5525;42.648;23.368;2023-01-29T05:49:44;94922.44;;;-0.45;100.00
10946;BME280;5525;42.648;23.368;2023-01-29T05:52:12;94907.59;;;-0.41;100.00
10946;BME280;5525;42.648;23.368;2023-01-29T05:54:39;94905.38;;;-0.49;100.00
10946;BME280;5525;42.648;23.368;2023-01-29T05:57:06;94916.63;;;-0.42;100.00
10946;BME280;5525;42.648;23.368;2023-01-29T05:59:34;94934.19;;;-0.36;100.00
10946;BME280;5525;42.648;23.368;2023-01-29T06:02:01;94928.88;;;-0.36;100.00
10946;BME280;5525;42.648;23.368;2023-01-29T06:04:29;94929.38;;;-0.39;100.00
10946;BME280;5525;42.648;23.368;2023-01-29T06:06:57;94930.78;;;-0.31;100.00
10946;BME280;5525;42.648;23.368;2023-01-29T06:09:31;94938.69;;;-0.36;100.00
10946;BME280;5525;42.648;23.368;2023-01-29T06:11:59;94947.53;;;-0.26;100.00
10946;BME280;5525;42.648;23.368;2023-01-29T06:14:26;94942.28;;;-0.47;100.00
10946;BME280;5525;42.648;23.368;2023-01-29T06:16:53;94947.38;;;-0.41;100.00
10946;BME280;5525;42.648;23.368;2023-01-29T06:19:19;94952.78;;;-0.31;100.00
10946;BME280;5525;42.648;23.368;2023-01-29T06:21:46;94943.25;;;-0.32;100.00
10946;BME280;5525;42.648;23.368;2023-01-29T06:24:13;94941.78;;;-0.44;100.00
10946;BME280;5525;42.648;23.368;2023-01-29T06:26:42;94953.91;;;-0.27;100.00
10946;BME280;5525;42.648;23.368;2023-01-29T06:29:09;94969.25;;;-0.29;100.00
10946;BME280;5525;42.648;23.368;2023-01-29T06:31:36;94973.97;;;-0.09;100.00
10946;BME280;5525;42.648;23.368;2023-01-29T06:34:03;94959.31;;;-0.17;100.00
10946;BME280;5525;42.648;23.368;2023-01-29T06:36:30;94970.22;;;-0.13;100.00
10946;BME280;5525;42.648;23.368;2023-01-29T06:38:57;94955.81;;;-0.22;100.00
10946;BME280;5525;42.648;23.368;2023-01-29T06:41:26;94971.63;;;-0.06;100.00
10946;BME280;5525;42.648;23.368;2023-01-29T06:43:58;94976.13;;;-0.06;100.00
10946;BME280;5525;42.648;23.368;2023-01-29T06:46:25;94976.81;;;0.06;100.00
10946;BME280;5525;42.648;23.368;2023-01-29T06:48:53;94977.06;;;0.05;100.00
10946;BME280;5525;42.648;23.368;2023-01-29T06:51:21;94980.66;;;-0.07;100.00
10946;BME280;5525;42.648;23.368;2023-01-29T06:53:48;94978.66;;;0.06;100.00
10946;BME280;5525;42.648;23.368;2023-01-29T06:56:15;94983.19;;;0.10;100.00
10946;BME280;5525;42.648;23.368;2023-01-29T06:58:42;94992.25;;;0.14;100.00
10946;BME280;5525;42.648;23.368;2023-01-29T07:01:11;94978.91;;;0.04;100.00
10946;BME280;5525;42.648;23.368;2023-01-29T07:03:38;94978.72;;;0.16;100.00
10946;BME280;5525;42.648;23.368;2023-01-29T07:06:06;94992.16;;;0.31;100.00
10946;BME280;5525;42.648;23.368;2023-01-29T07:08:35;94958.88;;;0.23;100.00
10946;BME280;5525;42.648;23.368;2023-01-29T07:11:02;94997.31;;;0.16;100.00
10946;BME280;5525;42.648;23.368;2023-01-29T07:13:29;95005.19;;;0.06;100.00
10946;BME280;5525;42.648;23.368;2023-01-29T07:15:58;95000.78;;;0.16;100.00
10946;BME280;5525;42.648;23.368;2023-01-29T07:18:27;94995.56;;;0.26;100.00
10946;BME280;5525;42.648;23.368;2023-01-29T07:20:54;95005.47;;;0.36;100.00
10946;BME280;5525;42.648;23.368;2023-01-29T07:23:21;95006.53;;;0.35;100.00
10946;BME280;5525;42.648;23.368;2023-01-29T07:25:49;95009.19;;;0.35;100.00
10946;BME280;5525;42.648;23.368;2023-01-29T07:28:16;95006.59;;;0.40;100.00
10946;BME280;5525;42.648;23.368;2023-01-29T07:30:43;95015.94;;;0.47;100.00
10946;BME280;5525;42.648;23.368;2023-01-29T07:33:10;95014.25;;;0.36;100.00
10946;BME280;5525;42.648;23.368;2023-01-29T07:35:40;95010.19;;;0.29;100.00
10946;BME280;5525;42.648;23.368;2023-01-29T07:38:08;95001.34;;;0.18;100.00
10946;BME280;5525;42.648;23.368;2023-01-29T07:40:35;95011.03;;;0.34;100.00
10946;BME280;5525;42.648;23.368;2023-01-29T07:43:04;95019.56;;;0.36;100.00
10946;BME280;5525;42.648;23.368;2023-01-29T07:45:33;95018.78;;;0.41;100.00
10946;BME280;5525;42.648;23.368;2023-01-29T07:48:00;95019.34;;;0.43;100.00
10946;BME280;5525;42.648;23.368;2023-01-29T07:50:28;95016.75;;;0.48;100.00
10946;BME280;5525;42.648;23.368;2023-01-29T07:52:57;95009.75;;;0.37;100.00
10946;BME280;5525;42.648;23.368;2023-01-29T07:55:24;95021.66;;;0.34;100.00
10946;BME280;5525;42.648;23.368;2023-01-29T07:57:54;95013.75;;;0.39;100.00
10946;BME280;5525;42.648;23.368;2023-01-29T08:00:22;95026.25;;;0.44;100.00
10946;BME280;5525;42.648;23.368;2023-01-29T08:02:49;95033.59;;;0.32;100.00
10946;BME280;5525;42.648;23.368;2023-01-29T08:05:16;95027.22;;;0.33;100.00
10946;BME280;5525;42.648;23.368;2023-01-29T08:07:42;95028.78;;;0.29;100.00
10946;BME280;5525;42.648;23.368;2023-01-29T08:10:11;95034.41;;;0.32;100.00
10946;BME280;5525;42.648;23.368;2023-01-29T08:12:38;95024.31;;;0.34;100.00
10946;BME280;5525;42.648;23.368;2023-01-29T08:15:05;95035.69;;;0.30;100.00
10946;BME280;5525;42.648;23.368;2023-01-29T08:17:32;95040.03;;;0.41;100.00
10946;BME280;5525;42.648;23.368;2023-01-29T08:19:59;95041.53;;;0.58;100.00
10946;BME280;5525;42.648;23.368;2023-01-29T08:22:26;95044.84;;;0.44;100.00
10946;BME280;5525;42.648;23.368;2023-01-29T08:24:53;95000.16;;;0.36;100.00
10946;BME280;5525;42.648;23.368;2023-01-29T08:27:21;95037.38;;;0.41;100.00
10946;BME280;5525;42.648;23.368;2023-01-29T08:29:48;95046.66;;;0.38;100.00
10946;BME280;5525;42.648;23.368;2023-01-29T08:32:15;95034.66;;;0.31;100.00
10946;BME280;5525;42.648;23.368;2023-01-29T08:34:42;95050.16;;;0.44;100.00
10946;BME280;5525;42.648;23.368;2023-01-29T08:37:08;95036.31;;;0.42;100.00
10946;BME280;5525;42.648;23.368;2023-01-29T08:39:35;95049.72;;;0.52;100.00
10946;BME280;5525;42.648;23.368;2023-01-29T08:42:02;95051.50;;;0.46;100.00
10946;BME280;5525;42.648;23.368;2023-01-29T08:44:30;95053.19;;;0.52;100.00
10946;BME280;5525;42.648;23.368;2023-01-29T08:46:57;95053.19;;;0.52;100.00
10946;BME280;5525;42.648;23.368;2023-01-29T08:49:24;95060.97;;;0.64;100.00
10946;BME280;5525;42.648;23.368;2023-01-29T08:51:51;95069.56;;;0.71;100.00
10946;BME280;5525;42.648;23.368;2023-01-29T08:54:21;95064.38;;;0.59;100.00
10946;BME280;5525;42.648;23.368;2023-01-29T08:56:49;95058.13;;;0.44;100.00
10946;BME280;5525;42.648;23.368;2023-01-29T08:59:17;95068.13;;;0.58;100.00
10946;BME280;5525;42.648;23.368;2023-01-29T09:01:45;95078.75;;;0.58;100.00
10946;BME280;5525;42.648;23.368;2023-01-29T09:04:12;95074.72;;;0.56;100.00
10946;BME280;5525;42.648;23.368;2023-01-29T09:06:39;95083.88;;;0.43;100.00
10946;BME280;5525;42.648;23.368;2023-01-29T09:09:06;95065.09;;;0.50;100.00
10946;BME280;5525;42.648;23.368;2023-01-29T09:11:33;95072.63;;;0.58;100.00
10946;BME280;5525;42.648;23.368;2023-01-29T09:14:01;95075.03;;;0.59;100.00
10946;BME280;5525;42.648;23.368;2023-01-29T09:16:27;95071.03;;;0.62;100.00
10946;BME280;5525;42.648;23.368;2023-01-29T09:18:56;95075.41;;;0.73;100.00
10946;BME280;5525;42.648;23.368;2023-01-29T09:21:23;95039.59;;;0.49;100.00
10946;BME280;5525;42.648;23.368;2023-01-29T09:23:50;95076.03;;;0.85;100.00
10946;BME280;5525;42.648;23.368;2023-01-29T09:26:18;95034.28;;;0.49;100.00
10946;BME280;5525;42.648;23.368;2023-01-29T09:28:45;95063.75;;;0.47;100.00
10946;BME280;5525;42.648;23.368;2023-01-29T09:31:12;95072.31;;;0.54;100.00
10946;BME280;5525;42.648;23.368;2023-01-29T09:33:39;95052.44;;;0.30;100.00
10946;BME280;5525;42.648;23.368;2023-01-29T09:36:08;95047.38;;;0.29;100.00
10946;BME280;5525;42.648;23.368;2023-01-29T09:38:35;95064.59;;;0.53;100.00
10946;BME280;5525;42.648;23.368;2023-01-29T09:41:11;95048.78;;;0.36;100.00
10946;BME280;5525;42.648;23.368;2023-01-29T09:43:46;95069.81;;;0.43;100.00
10946;BME280;5525;42.648;23.368;2023-01-29T09:46:19;95059.59;;;0.56;100.00
10946;BME280;5525;42.648;23.368;2023-01-29T09:48:51;95051.28;;;0.48;100.00
10946;BME280;5525;42.648;23.368;2023-01-29T09:51:27;95066.28;;;0.64;100.00
10946;BME280;5525;42.648;23.368;2023-01-29T09:54:03;95059.13;;;0.64;100.00
10946;BME280;5525;42.648;23.368;2023-01-29T09:56:34;95023.78;;;0.64;100.00
10946;BME280;5525;42.648;23.368;2023-01-29T09:59:09;95057.59;;;0.73;100.00
10946;BME280;5525;42.648;23.368;2023-01-29T10:01:43;95048.88;;;0.78;100.00
10946;BME280;5525;42.648;23.368;2023-01-29T10:04:44;95047.75;;;0.69;100.00
10946;BME280;5525;42.648;23.368;2023-01-29T10:10:20;95046.84;;;0.90;100.00
10946;BME280;5525;42.648;23.368;2023-01-29T10:12:59;95036.41;;;0.78;100.00
10946;BME280;5525;42.648;23.368;2023-01-29T10:15:36;95020.34;;;0.68;100.00
10946;BME280;5525;42.648;23.368;2023-01-29T10:18:31;95020.75;;;0.50;100.00
10946;BME280;5525;42.648;23.368;2023-01-29T10:21:10;95037.56;;;0.61;100.00
10946;BME280;5525;42.648;23.368;2023-01-29T10:23:45;95029.03;;;0.59;100.00
10946;BME280;5525;42.648;23.368;2023-01-29T10:26:18;95028.28;;;0.63;100.00
10946;BME280;5525;42.648;23.368;2023-01-29T10:28:49;95029.34;;;0.62;100.00
10946;BME280;5525;42.648;23.368;2023-01-29T10:31:23;95024.28;;;0.61;100.00
10946;BME280;5525;42.648;23.368;2023-01-29T10:33:57;95019.91;;;0.76;100.00
10946;BME280;5525;42.648;23.368;2023-01-29T10:36:32;94998.63;;;0.45;100.00
10946;BME280;5525;42.648;23.368;2023-01-29T10:39:00;95013.66;;;0.61;100.00
10946;BME280;5525;42.648;23.368;2023-01-29T10:41:43;95016.38;;;0.66;100.00
10946;BME280;5525;42.648;23.368;2023-01-29T10:44:22;95011.84;;;0.66;100.00
10946;BME280;5525;42.648;23.368;2023-01-29T10:47:16;95025.16;;;0.71;100.00
10946;BME280;5525;42.648;23.368;2023-01-29T10:50:01;95003.84;;;0.61;100.00
10946;BME280;5525;42.648;23.368;2023-01-29T10:52:42;95010.94;;;0.51;100.00
10946;BME280;5525;42.648;23.368;2023-01-29T10:55:32;95016.16;;;0.72;100.00
10946;BME280;5525;42.648;23.368;2023-01-29T10:58:12;95011.75;;;0.56;100.00
10946;BME280;5525;42.648;23.368;2023-01-29T11:00:42;95012.06;;;0.60;100.00
10946;BME280;5525;42.648;23.368;2023-01-29T11:03:18;94988.78;;;0.40;100.00
10946;BME280;5525;42.648;23.368;2023-01-29T11:05:52;95008.59;;;0.59;100.00
10946;BME280;5525;42.648;23.368;2023-01-29T11:08:23;94976.66;;;0.49;100.00
10946;BME280;5525;42.648;23.368;2023-01-29T11:11:02;94992.66;;;0.59;100.00
10946;BME280;5525;42.648;23.368;2023-01-29T11:13:38;94968.09;;;0.42;100.00
10946;BME280;5525;42.648;23.368;2023-01-29T11:16:10;95004.63;;;0.62;100.00
10946;BME280;5525;42.648;23.368;2023-01-29T11:18:55;94996.50;;;0.73;100.00
10946;BME280;5525;42.648;23.368;2023-01-29T11:21:27;94989.59;;;0.77;100.00
10946;BME280;5525;42.648;23.368;2023-01-29T11:24:08;94992.88;;;0.89;100.00
10946;BME280;5525;42.648;23.368;2023-01-29T11:26:40;94983.50;;;0.77;100.00
10946;BME280;5525;42.648;23.368;2023-01-29T11:29:35;94973.47;;;0.89;100.00
10946;BME280;5525;42.648;23.368;2023-01-29T11:32:05;94994.91;;;1.19;100.00
10946;BME280;5525;42.648;23.368;2023-01-29T11:34:33;94987.94;;;1.08;100.00
10946;BME280;5525;42.648;23.368;2023-01-29T11:37:14;94968.81;;;1.06;100.00
10946;BME280;5525;42.648;23.368;2023-01-29T11:39:43;94975.66;;;1.02;100.00
10946;BME280;5525;42.648;23.368;2023-01-29T11:42:18;94974.13;;;1.06;100.00
10946;BME280;5525;42.648;23.368;2023-01-29T11:44:50;94968.81;;;1.06;100.00
10946;BME280;5525;42.648;23.368;2023-01-29T11:47:19;94947.41;;;0.91;100.00
10946;BME280;5525;42.648;23.368;2023-01-29T11:49:49;94951.31;;;1.15;100.00
10946;BME280;5525;42.648;23.368;2023-01-29T11:52:19;94959.63;;;1.33;100.00
10946;BME280;5525;42.648;23.368;2023-01-29T11:54:54;94961.97;;;1.25;100.00
10946;BME280;5525;42.648;23.368;2023-01-29T11:57:30;94952.38;;;1.19;100.00
10946;BME280;5525;42.648;23.368;2023-01-29T12:00:02;94965.41;;;1.20;100.00
10946;BME280;5525;42.648;23.368;2023-01-29T12:02:35;94945.69;;;1.11;100.00
10946;BME280;5525;42.648;23.368;2023-01-29T12:05:05;94961.53;;;1.48;100.00
10946;BME280;5525;42.648;23.368;2023-01-29T12:07:40;94930.03;;;1.15;100.00
10946;BME280;5525;42.648;23.368;2023-01-29T12:13:24;94949.03;;;1.43;100.00
10946;BME280;5525;42.648;23.368;2023-01-29T12:16:11;94945.38;;;1.59;100.00
10946;BME280;5525;42.648;23.368;2023-01-29T12:18:43;94953.59;;;1.53;100.00
10946;BME280;5525;42.648;23.368;2023-01-29T12:21:20;94952.53;;;1.49;100.00
10946;BME280;5525;42.648;23.368;2023-01-29T12:23:56;94951.75;;;1.63;100.00
10946;BME280;5525;42.648;23.368;2023-01-29T12:26:30;94959.81;;;1.84;100.00
10946;BME280;5525;42.648;23.368;2023-01-29T12:29:22;94955.72;;;1.56;100.00
10946;BME280;5525;42.648;23.368;2023-01-29T12:32:04;94960.50;;;1.54;100.00
10946;BME280;5525;42.648;23.368;2023-01-29T12:34:37;94959.97;;;1.52;100.00
10946;BME280;5525;42.648;23.368;2023-01-29T12:37:16;94966.16;;;1.72;100.00
10946;BME280;5525;42.648;23.368;2023-01-29T12:39:45;94961.63;;;1.68;100.00
10946;BME280;5525;42.648;23.368;2023-01-29T12:42:16;94952.50;;;1.44;100.00
10946;BME280;5525;42.648;23.368;2023-01-29T12:44:50;94966.72;;;1.74;100.00
10946;BME280;5525;42.648;23.368;2023-01-29T12:47:25;94972.31;;;1.83;100.00
10946;BME280;5525;42.648;23.368;2023-01-29T12:49:56;94944.66;;;1.84;100.00
10946;BME280;5525;42.648;23.368;2023-01-29T12:52:35;94953.69;;;1.78;100.00
10946;BME280;5525;42.648;23.368;2023-01-29T12:55:09;94931.03;;;1.75;100.00
10946;BME280;5525;42.648;23.368;2023-01-29T12:57:43;94960.31;;;1.70;100.00
10946;BME280;5525;42.648;23.368;2023-01-29T13:00:15;94956.88;;;1.75;100.00
10946;BME280;5525;42.648;23.368;2023-01-29T13:02:53;94953.94;;;1.71;100.00
10946;BME280;5525;42.648;23.368;2023-01-29T13:05:25;94943.88;;;2.04;100.00
10946;BME280;5525;42.648;23.368;2023-01-29T13:07:58;94956.38;;;1.93;100.00
10946;BME280;5525;42.648;23.368;2023-01-29T13:10:30;94964.31;;;1.73;100.00
10946;BME280;5525;42.648;23.368;2023-01-29T13:13:03;94955.25;;;1.74;100.00
10946;BME280;5525;42.648;23.368;2023-01-29T13:15:34;94954.47;;;1.84;100.00
10946;BME280;5525;42.648;23.368;2023-01-29T13:18:22;94951.25;;;1.71;100.00
10946;BME280;5525;42.648;23.368;2023-01-29T13:20:54;94955.53;;;1.67;100.00
10946;BME280;5525;42.648;23.368;2023-01-29T13:23:29;94948.06;;;1.64;100.00
10946;BME280;5525;42.648;23.368;2023-01-29T13:25:59;94940.53;;;1.51;100.00
10946;BME280;5525;42.648;23.368;2023-01-29T13:28:26;94956.53;;;1.61;100.00